createdAt,value
2018-05-06T00:01:29.024Z,6.70
2018-05-06T00:03:54.755Z,7.57
2018-05-06T00:06:20.511Z,8.60
2018-05-06T00:08:46.283Z,6.00
2018-05-06T00:11:12.088Z,7.27
2018-05-06T00:13:37.851Z,6.73
2018-05-06T00:16:03.634Z,10.73
2018-05-06T00:18:29.403Z,9.17
2018-05-06T00:20:55.162Z,8.47
2018-05-06T00:23:20.942Z,8.43
2018-05-06T00:25:47.028Z,7.10
2018-05-06T00:28:12.852Z,9.30
2018-05-06T00:30:38.637Z,8.13
2018-05-06T00:33:04.429Z,7.77
2018-05-06T00:35:30.219Z,7.17
2018-05-06T00:37:55.971Z,7.73
2018-05-06T00:40:21.732Z,7.10
2018-05-06T00:42:47.612Z,7.83
2018-05-06T00:45:13.396Z,6.87
2018-05-06T00:47:39.137Z,10.50
2018-05-06T00:50:05.033Z,7.73
2018-05-06T00:52:30.804Z,8.30
2018-05-06T00:54:56.572Z,10.63
2018-05-06T00:57:22.327Z,6.57
2018-05-06T00:59:48.079Z,8.00
2018-05-06T01:02:13.868Z,7.57
2018-05-06T01:04:39.606Z,7.77
2018-05-06T01:07:05.539Z,5.17
2018-05-06T01:09:31.315Z,6.20
2018-05-06T01:11:57.068Z,8.60
2018-05-06T01:14:22.844Z,9.33
2018-05-06T01:16:48.593Z,5.93
2018-05-06T01:19:14.388Z,8.03
2018-05-06T01:21:40.134Z,5.30
2018-05-06T01:24:05.918Z,7.40
2018-05-06T01:26:31.665Z,6.53
2018-05-06T01:28:57.443Z,7.40
2018-05-06T01:31:23.207Z,6.93
2018-05-06T01:33:48.990Z,8.40
2018-05-06T01:36:14.737Z,9.37
2018-05-06T01:38:40.538Z,7.80
2018-05-06T01:41:06.323Z,12.07
2018-05-06T01:43:32.086Z,8.43
2018-05-06T01:45:57.851Z,9.60
2018-05-06T01:48:23.622Z,11.83
2018-05-06T01:50:49.379Z,10.00
2018-05-06T01:53:15.131Z,6.80
2018-05-06T01:55:40.904Z,8.37
2018-05-06T01:58:06.674Z,6.60
2018-05-06T02:00:32.440Z,10.67
2018-05-06T02:02:58.203Z,11.53
2018-05-06T02:05:23.977Z,9.20
2018-05-06T02:07:49.736Z,9.23
2018-05-06T02:10:15.498Z,10.93
2018-05-06T02:12:41.305Z,10.47
2018-05-06T02:15:07.063Z,6.80
2018-05-06T02:17:32.803Z,7.50
2018-05-06T02:19:58.617Z,7.03
2018-05-06T02:22:24.379Z,10.63
2018-05-06T02:24:50.194Z,7.80
2018-05-06T02:27:15.939Z,8.20
2018-05-06T02:29:41.731Z,8.57
2018-05-06T02:32:07.514Z,9.03
2018-05-06T02:34:33.331Z,7.90
2018-05-06T02:36:59.107Z,12.40
2018-05-06T02:39:25.315Z,8.53
2018-05-06T02:41:51.138Z,9.90
2018-05-06T02:44:16.876Z,5.37
2018-05-06T02:46:42.660Z,6.77
2018-05-06T02:49:08.436Z,9.23
2018-05-06T02:51:34.525Z,8.93
2018-05-06T02:54:00.316Z,11.35
2018-05-06T02:56:26.084Z,8.10
2018-05-06T02:58:51.831Z,6.93
2018-05-06T03:01:17.603Z,6.80
2018-05-06T03:03:43.355Z,8.50
2018-05-06T03:06:09.171Z,8.47
2018-05-06T03:08:34.932Z,7.63
2018-05-06T03:11:00.740Z,8.53
2018-05-06T03:13:26.503Z,10.97
2018-05-06T03:15:52.398Z,5.20
2018-05-06T03:18:18.164Z,6.40
2018-05-06T03:20:44.076Z,7.37
2018-05-06T03:23:09.824Z,10.80
2018-05-06T03:25:35.611Z,6.67
2018-05-06T03:28:01.360Z,6.77
2018-05-06T03:30:27.108Z,7.80
2018-05-06T03:32:52.933Z,9.00
2018-05-06T03:35:18.675Z,12.50
2018-05-06T03:37:44.438Z,9.27
2018-05-06T03:40:10.187Z,10.10
2018-05-06T03:42:35.964Z,10.47
2018-05-06T03:45:01.727Z,9.77
2018-05-06T03:47:27.479Z,6.73
2018-05-06T03:49:53.252Z,9.40
2018-05-06T03:52:19.178Z,8.23
2018-05-06T03:54:44.943Z,7.77
2018-05-06T03:57:23.167Z,6.80
2018-05-06T04:00:01.280Z,8.32
2018-05-06T04:02:29.959Z,7.05
2018-05-06T04:04:55.724Z,7.72
2018-05-06T04:07:21.503Z,6.73
2018-05-06T04:09:48.039Z,6.70
2018-05-06T04:12:13.795Z,8.40
2018-05-06T04:14:39.566Z,7.63
2018-05-06T04:17:05.321Z,15.73
2018-05-06T04:19:31.107Z,7.27
2018-05-06T04:21:56.878Z,6.50
2018-05-06T04:24:22.620Z,8.23
2018-05-06T04:26:48.591Z,7.40
2018-05-06T04:29:14.340Z,7.53
2018-05-06T04:31:40.133Z,9.10
2018-05-06T04:34:05.916Z,8.10
2018-05-06T04:36:31.710Z,7.07
2018-05-06T04:38:57.456Z,6.40
2018-05-06T04:41:23.231Z,8.27
2018-05-06T04:43:49.008Z,6.93
2018-05-06T04:46:14.764Z,7.57
2018-05-06T04:48:40.504Z,7.90
2018-05-06T04:51:06.576Z,8.63
2018-05-06T04:53:32.347Z,7.40
2018-05-06T04:55:58.094Z,5.80
2018-05-06T04:58:23.883Z,6.37
2018-05-06T05:00:49.724Z,5.40
2018-05-06T05:03:15.488Z,7.37
2018-05-06T05:05:41.275Z,6.73
2018-05-06T05:08:07.079Z,6.50
2018-05-06T05:10:32.859Z,5.30
2018-05-06T05:12:58.595Z,10.33
2018-05-06T05:15:24.368Z,5.40
2018-05-06T05:17:50.160Z,5.63
2018-05-06T05:20:15.923Z,6.97
2018-05-06T05:22:41.740Z,6.37
2018-05-06T05:25:07.489Z,4.43
2018-05-06T05:27:33.271Z,5.80
2018-05-06T05:29:59.004Z,5.07
2018-05-06T05:32:24.787Z,5.10
2018-05-06T05:34:50.563Z,5.83
2018-05-06T05:37:16.330Z,7.83
2018-05-06T05:39:42.088Z,6.30
2018-05-06T05:42:07.834Z,6.10
2018-05-06T05:44:33.599Z,4.00
2018-05-06T05:46:59.395Z,5.03
2018-05-06T05:49:25.148Z,7.50
2018-05-06T05:51:50.904Z,3.67
2018-05-06T05:54:16.687Z,7.20
2018-05-06T05:56:42.455Z,4.73
2018-05-06T05:59:08.323Z,7.17
2018-05-06T06:01:34.146Z,6.00
2018-05-06T06:03:59.905Z,6.50
2018-05-06T06:06:25.668Z,4.93
2018-05-06T06:08:51.470Z,8.30
2018-05-06T06:11:17.211Z,8.50
2018-05-06T06:13:42.967Z,5.10
2018-05-06T06:16:08.741Z,3.77
2018-05-06T06:18:41.372Z,4.37
2018-05-06T06:21:07.131Z,9.18
2018-05-06T06:23:32.909Z,4.97
2018-05-06T06:25:58.655Z,7.00
2018-05-06T06:28:24.494Z,6.47
2018-05-06T06:30:50.255Z,4.20
2018-05-06T06:33:16.372Z,4.80
2018-05-06T06:35:42.163Z,8.32
2018-05-06T06:38:07.928Z,10.57
2018-05-06T06:40:33.698Z,4.10
2018-05-06T06:42:59.548Z,3.50
2018-05-06T06:45:25.302Z,5.70
2018-05-06T06:47:51.133Z,6.10
2018-05-06T06:50:16.958Z,4.10
2018-05-06T06:52:42.711Z,6.70
2018-05-06T06:55:08.459Z,5.97
2018-05-06T06:57:34.496Z,5.63
2018-05-06T07:00:00.656Z,5.35
2018-05-06T07:02:26.481Z,7.00
2018-05-06T07:04:52.192Z,8.00
2018-05-06T07:07:17.996Z,3.80
2018-05-06T07:09:43.740Z,4.00
2018-05-06T07:12:09.508Z,7.10
2018-05-06T07:14:35.319Z,5.77
2018-05-06T07:17:01.089Z,3.70
2018-05-06T07:19:26.867Z,5.83
2018-05-06T07:21:52.647Z,5.00
2018-05-06T07:24:18.391Z,3.63
2018-05-06T07:26:44.153Z,5.03
2018-05-06T07:29:09.919Z,6.70
2018-05-06T07:31:35.672Z,4.70
2018-05-06T07:34:01.468Z,6.33
2018-05-06T07:36:27.295Z,8.50
2018-05-06T07:38:53.040Z,5.50
2018-05-06T07:41:18.811Z,5.20
2018-05-06T07:43:44.575Z,4.50
2018-05-06T07:46:10.348Z,3.50
2018-05-06T07:48:36.099Z,4.10
2018-05-06T07:51:02.104Z,6.10
2018-05-06T07:53:27.851Z,7.00
2018-05-06T07:55:53.619Z,3.20
2018-05-06T07:58:19.592Z,5.00
2018-05-06T08:00:45.391Z,3.20
2018-05-06T08:03:11.171Z,3.60
2018-05-06T08:05:36.907Z,7.37
2018-05-06T08:08:02.671Z,3.90
2018-05-06T08:10:28.416Z,5.87
2018-05-06T08:12:54.191Z,5.97
2018-05-06T08:15:19.936Z,8.07
2018-05-06T08:17:45.731Z,6.87
2018-05-06T08:20:11.480Z,5.57
2018-05-06T08:22:38.309Z,5.13
2018-05-06T08:25:04.356Z,4.47
2018-05-06T08:27:30.121Z,3.17
2018-05-06T08:29:55.891Z,4.80
2018-05-06T08:32:21.650Z,4.30
2018-05-06T08:34:47.451Z,4.43
2018-05-06T08:37:13.352Z,5.07
2018-05-06T08:39:39.115Z,4.70
2018-05-06T08:42:04.867Z,6.80
2018-05-06T08:44:30.607Z,10.13
2018-05-06T08:46:56.382Z,8.13
2018-05-06T08:49:22.143Z,4.40
2018-05-06T08:51:47.913Z,5.80
2018-05-06T08:54:13.660Z,5.03
2018-05-06T08:56:39.431Z,5.87
2018-05-06T08:59:05.403Z,4.70
2018-05-06T09:01:31.172Z,4.80
2018-05-06T09:03:56.919Z,3.60
2018-05-06T09:06:22.691Z,6.20
2018-05-06T09:08:48.448Z,3.63
2018-05-06T09:11:14.263Z,3.97
2018-05-06T09:13:39.979Z,4.03
2018-05-06T09:16:05.791Z,5.97
2018-05-06T09:18:31.576Z,2.37
2018-05-06T09:20:57.358Z,5.00
2018-05-06T09:23:23.102Z,3.67
2018-05-06T09:25:49.122Z,4.73
2018-05-06T09:28:14.888Z,7.27
2018-05-06T09:30:40.679Z,4.57
2018-05-06T09:33:06.436Z,2.33
2018-05-06T09:35:32.224Z,4.30
2018-05-06T09:37:57.983Z,2.70
2018-05-06T09:40:23.743Z,6.37
2018-05-06T09:42:49.515Z,4.17
2018-05-06T09:45:15.314Z,4.53
2018-05-06T09:47:41.147Z,4.73
2018-05-06T09:50:06.831Z,3.03
2018-05-06T09:52:32.628Z,5.63
2018-05-06T09:54:58.387Z,2.80
2018-05-06T09:57:24.163Z,2.20
2018-05-06T09:59:49.980Z,2.37
2018-05-06T10:02:15.754Z,6.57
2018-05-06T10:04:41.515Z,2.90
2018-05-06T10:07:07.290Z,2.97
2018-05-06T10:09:33.071Z,3.90
2018-05-06T10:11:58.864Z,2.50
2018-05-06T10:14:24.624Z,6.00
2018-05-06T10:16:50.411Z,3.77
2018-05-06T10:19:16.168Z,4.90
2018-05-06T10:21:41.947Z,3.53
2018-05-06T10:24:07.721Z,3.20
2018-05-06T10:26:33.501Z,2.10
2018-05-06T10:28:59.252Z,1.43
2018-05-06T10:31:25.037Z,3.40
2018-05-06T10:33:50.803Z,2.13
2018-05-06T10:36:16.952Z,3.57
2018-05-06T10:38:42.694Z,2.10
2018-05-06T10:41:08.887Z,2.80
2018-05-06T10:43:34.703Z,2.60
2018-05-06T10:46:00.463Z,2.83
2018-05-06T10:48:26.288Z,1.50
2018-05-06T10:50:52.035Z,2.07
2018-05-06T10:53:17.828Z,2.00
2018-05-06T10:55:43.577Z,1.40
2018-05-06T10:58:09.360Z,1.00
2018-05-06T11:00:35.347Z,1.67
2018-05-06T11:03:01.132Z,2.50
2018-05-06T11:05:26.875Z,2.93
2018-05-06T11:07:52.631Z,2.30
2018-05-06T11:10:18.425Z,2.20
2018-05-06T11:12:44.223Z,1.83
2018-05-06T11:15:09.987Z,2.40
2018-05-06T11:17:35.758Z,2.47
2018-05-06T11:20:01.503Z,3.00
2018-05-06T11:22:27.504Z,2.80
2018-05-06T11:24:53.248Z,1.77
2018-05-06T11:27:19.028Z,1.73
2018-05-06T11:29:44.779Z,4.40
2018-05-06T11:32:10.558Z,3.20
2018-05-06T11:34:36.316Z,2.60
2018-05-06T11:37:02.103Z,1.43
2018-05-06T11:39:27.855Z,1.40
2018-05-06T11:41:53.651Z,1.27
2018-05-06T11:44:19.387Z,2.63
2018-05-06T11:46:45.134Z,2.97
2018-05-06T11:49:10.932Z,1.63
2018-05-06T11:51:36.684Z,2.60
2018-05-06T11:54:02.464Z,2.50
2018-05-06T11:56:28.214Z,1.33
2018-05-06T11:58:54.062Z,3.80
2018-05-06T12:01:19.830Z,2.33
2018-05-06T12:03:45.626Z,1.60
2018-05-06T12:06:11.376Z,2.10
2018-05-06T12:08:37.157Z,2.20
2018-05-06T12:11:02.931Z,2.30
2018-05-06T12:13:28.723Z,3.20
2018-05-06T12:15:54.493Z,12.33
2018-05-06T12:18:20.287Z,17.97
2018-05-06T12:20:46.027Z,3.07
2018-05-06T12:23:11.823Z,20.13
2018-05-06T12:25:37.569Z,4.17
2018-05-06T12:28:03.339Z,3.60
2018-05-06T12:30:29.099Z,2.50
2018-05-06T12:32:54.876Z,2.10
2018-05-06T12:35:20.715Z,2.73
2018-05-06T12:37:46.499Z,3.60
2018-05-06T12:40:12.249Z,1.73
2018-05-06T12:42:38.031Z,4.57
2018-05-06T12:45:03.793Z,5.67
2018-05-06T12:47:29.591Z,3.20
2018-05-06T12:49:55.371Z,2.90
2018-05-06T12:52:21.144Z,4.10
2018-05-06T12:54:46.943Z,10.33
2018-05-06T12:57:12.704Z,3.33
2018-05-06T12:59:38.528Z,2.97
2018-05-06T13:02:04.274Z,2.20
2018-05-06T13:04:30.021Z,5.47
2018-05-06T13:06:55.780Z,2.80
2018-05-06T13:09:21.555Z,1.87
2018-05-06T13:11:47.305Z,8.97
2018-05-06T13:14:13.108Z,9.53
2018-05-06T13:16:38.846Z,4.07
2018-05-06T13:19:04.867Z,1.40
2018-05-06T13:21:30.613Z,1.80
2018-05-06T13:23:56.606Z,1.93
2018-05-06T13:26:22.383Z,2.33
2018-05-06T13:28:48.451Z,2.70
2018-05-06T13:31:14.249Z,1.60
2018-05-06T13:33:40.031Z,2.37
2018-05-06T13:36:05.830Z,2.50
2018-05-06T13:38:31.636Z,3.33
2018-05-06T13:40:57.463Z,1.20
2018-05-06T13:43:23.232Z,1.83
2018-05-06T13:45:48.998Z,1.73
2018-05-06T13:48:14.775Z,2.63
2018-05-06T13:50:40.528Z,3.13
2018-05-06T13:53:06.278Z,3.07
2018-05-06T13:55:32.102Z,1.47
2018-05-06T13:57:57.798Z,1.93
2018-05-06T14:00:23.587Z,3.10
2018-05-06T14:02:49.333Z,1.67
2018-05-06T14:05:15.254Z,1.80
2018-05-06T14:07:41.015Z,2.13
2018-05-06T14:10:06.775Z,2.20
2018-05-06T14:12:32.523Z,2.60
2018-05-06T14:14:58.280Z,1.60
2018-05-06T14:17:24.023Z,1.30
2018-05-06T14:19:49.788Z,1.83
2018-05-06T14:22:15.548Z,1.73
2018-05-06T14:24:41.359Z,2.90
2018-05-06T14:27:07.117Z,2.73
2018-05-06T14:29:32.904Z,2.53
2018-05-06T14:31:58.651Z,2.63
2018-05-06T14:34:24.411Z,3.13
2018-05-06T14:36:50.185Z,3.60
2018-05-06T14:39:15.980Z,1.30
2018-05-06T14:41:41.723Z,1.40
2018-05-06T14:44:07.540Z,4.23
2018-05-06T14:46:45.706Z,1.80
2018-05-06T14:49:11.468Z,2.80
2018-05-06T14:51:37.351Z,2.50
2018-05-06T14:54:03.087Z,4.47
2018-05-06T14:56:28.888Z,2.63
2018-05-06T14:58:54.638Z,2.07
2018-05-06T15:01:20.416Z,1.50
2018-05-06T15:03:46.292Z,2.73
2018-05-06T15:06:11.969Z,3.10
2018-05-06T15:08:37.748Z,2.73
2018-05-06T15:11:03.520Z,3.27
2018-05-06T15:13:29.291Z,1.00
2018-05-06T15:15:55.044Z,2.20
2018-05-06T15:18:20.823Z,2.83
2018-05-06T15:20:46.627Z,3.70
2018-05-06T15:23:12.387Z,3.10
2018-05-06T15:25:38.179Z,2.50
2018-05-06T15:28:03.938Z,4.03
2018-05-06T15:30:29.735Z,2.23
2018-05-06T15:32:55.492Z,3.60
2018-05-06T15:35:21.280Z,2.97
2018-05-06T15:37:47.039Z,7.50
2018-05-06T15:40:12.803Z,5.60
2018-05-06T15:42:38.546Z,4.23
2018-05-06T15:45:04.323Z,1.73
2018-05-06T15:47:30.077Z,1.97
2018-05-06T15:49:55.835Z,2.53
2018-05-06T15:52:21.597Z,3.10
2018-05-06T15:54:47.416Z,2.23
2018-05-06T15:57:13.185Z,4.60
2018-05-06T15:59:39.386Z,2.10
2018-05-06T16:02:17.499Z,5.47
2018-05-06T16:04:43.288Z,5.60
2018-05-06T16:07:09.052Z,3.50
2018-05-06T16:09:34.815Z,3.60
2018-05-06T16:12:00.604Z,2.00
2018-05-06T16:14:26.347Z,5.00
2018-05-06T16:16:52.107Z,3.27
2018-05-06T16:19:17.859Z,3.33
2018-05-06T16:21:43.645Z,2.60
2018-05-06T16:24:09.390Z,2.53
2018-05-06T16:26:35.230Z,3.10
2018-05-06T16:29:00.932Z,1.83
2018-05-06T16:31:26.707Z,1.43
2018-05-06T16:33:52.452Z,2.90
2018-05-06T16:36:18.244Z,3.10
2018-05-06T16:38:44.002Z,1.80
2018-05-06T16:41:09.768Z,1.57
2018-05-06T16:43:35.546Z,1.67
2018-05-06T16:46:01.359Z,2.30
2018-05-06T16:48:27.148Z,2.30
2018-05-06T16:50:52.894Z,1.80
2018-05-06T16:53:18.832Z,3.63
2018-05-06T16:55:44.569Z,1.73
2018-05-06T16:58:10.368Z,2.40
2018-05-06T17:00:36.305Z,5.97
2018-05-06T17:03:02.153Z,4.57
2018-05-06T17:05:27.910Z,6.80
2018-05-06T17:07:53.735Z,3.83
2018-05-06T17:10:19.495Z,3.03
2018-05-06T17:12:45.325Z,3.13
2018-05-06T17:15:11.047Z,2.50
2018-05-06T17:17:36.823Z,2.47
2018-05-06T17:20:11.690Z,2.93
2018-05-06T17:22:37.475Z,1.73
2018-05-06T17:25:03.243Z,2.97
2018-05-06T17:27:28.996Z,2.53
2018-05-06T17:29:54.779Z,1.70
2018-05-06T17:32:20.531Z,2.50
2018-05-06T17:34:46.314Z,1.67
2018-05-06T17:37:12.060Z,2.87
2018-05-06T17:39:37.839Z,3.30
2018-05-06T17:42:03.615Z,5.30
2018-05-06T17:44:29.372Z,3.53
2018-05-06T17:46:55.116Z,2.30
2018-05-06T17:49:20.923Z,6.13
2018-05-06T17:51:46.672Z,2.87
2018-05-06T17:54:12.487Z,1.50
2018-05-06T17:56:38.266Z,3.77
2018-05-06T17:59:04.307Z,3.77
2018-05-06T18:01:30.079Z,3.13
2018-05-06T18:03:55.836Z,3.40
2018-05-06T18:06:21.631Z,3.63
2018-05-06T18:08:47.388Z,4.10
2018-05-06T18:11:13.143Z,3.43
2018-05-06T18:13:38.902Z,4.03
2018-05-06T18:16:04.671Z,5.73
2018-05-06T18:18:30.451Z,3.93
2018-05-06T18:20:56.233Z,4.87
2018-05-06T18:23:21.976Z,2.87
2018-05-06T18:25:47.731Z,2.10
2018-05-06T18:28:13.516Z,1.90
2018-05-06T18:30:39.286Z,2.07
2018-05-06T18:33:05.056Z,5.80
2018-05-06T18:35:30.840Z,2.53
2018-05-06T18:37:56.604Z,2.73
2018-05-06T18:40:22.455Z,4.03
2018-05-06T18:42:48.248Z,2.70
2018-05-06T18:45:14.033Z,5.93
2018-05-06T18:47:39.813Z,2.80
2018-05-06T18:50:05.574Z,2.30
2018-05-06T18:52:31.435Z,1.97
2018-05-06T18:54:57.208Z,2.00
2018-05-06T18:57:23.026Z,3.77
2018-05-06T18:59:48.953Z,3.70
2018-05-06T19:02:14.700Z,3.90
2018-05-06T19:04:40.548Z,4.47
2018-05-06T19:07:06.320Z,5.33
2018-05-06T19:09:32.079Z,2.90
2018-05-06T19:11:57.853Z,3.90
2018-05-06T19:14:23.605Z,3.60
2018-05-06T19:16:49.383Z,7.47
2018-05-06T19:19:15.172Z,7.10
2018-05-06T19:21:40.918Z,5.90
2018-05-06T19:24:06.656Z,7.33
2018-05-06T19:26:32.463Z,5.20
2018-05-06T19:28:58.215Z,6.30
2018-05-06T19:31:23.989Z,4.80
2018-05-06T19:33:49.731Z,4.93
2018-05-06T19:36:15.775Z,4.47
2018-05-06T19:38:41.549Z,5.07
2018-05-06T19:41:07.331Z,7.93
2018-05-06T19:43:33.099Z,5.77
2018-05-06T19:45:58.863Z,3.47
2018-05-06T19:48:24.639Z,6.97
2018-05-06T19:50:50.384Z,5.20
2018-05-06T19:53:16.136Z,5.83
2018-05-06T19:55:41.895Z,5.87
2018-05-06T19:58:07.677Z,4.87
2018-05-06T20:00:33.822Z,4.87
2018-05-06T20:02:59.600Z,5.23
2018-05-06T20:05:25.379Z,4.47
2018-05-06T20:07:51.143Z,3.40
2018-05-06T20:10:16.912Z,7.00
2018-05-06T20:12:42.675Z,3.63
2018-05-06T20:15:08.441Z,5.47
2018-05-06T20:17:34.212Z,3.67
2018-05-06T20:20:00.009Z,3.57
2018-05-06T20:22:26.023Z,3.70
2018-05-06T20:24:51.943Z,2.77
2018-05-06T20:27:17.866Z,4.07
2018-05-06T20:29:43.675Z,5.90
2018-05-06T20:32:09.454Z,7.00
2018-05-06T20:34:35.206Z,5.07
2018-05-06T20:37:01.005Z,4.80
2018-05-06T20:39:27.142Z,5.30
2018-05-06T20:41:52.937Z,6.60
2018-05-06T20:44:18.675Z,5.23
2018-05-06T20:46:44.467Z,4.63
2018-05-06T20:49:10.216Z,8.10
2018-05-06T20:51:35.996Z,7.43
2018-05-06T20:54:01.760Z,4.03
2018-05-06T20:56:27.541Z,4.20
2018-05-06T20:58:53.293Z,4.70
2018-05-06T21:01:19.078Z,2.80
2018-05-06T21:03:44.828Z,6.00
2018-05-06T21:06:10.633Z,4.97
2018-05-06T21:08:36.427Z,4.33
2018-05-06T21:11:02.219Z,3.90
2018-05-06T21:13:27.968Z,4.20
2018-05-06T21:15:53.935Z,4.93
2018-05-06T21:18:19.695Z,6.67
2018-05-06T21:20:45.450Z,6.50
2018-05-06T21:23:11.231Z,4.80
2018-05-06T21:25:36.987Z,4.20
2018-05-06T21:28:02.774Z,5.37
2018-05-06T21:30:28.522Z,6.57
2018-05-06T21:32:54.306Z,10.03
2018-05-06T21:35:20.050Z,5.60
2018-05-06T21:37:45.862Z,5.40
2018-05-06T21:40:11.571Z,8.40
2018-05-06T21:42:37.635Z,6.97
2018-05-06T21:45:03.395Z,5.47
2018-05-06T21:47:29.173Z,6.10
2018-05-06T21:49:54.931Z,5.50
2018-05-06T21:52:20.700Z,6.13
2018-05-06T21:54:46.467Z,7.00
2018-05-06T21:57:12.233Z,6.77
2018-05-06T21:59:38.215Z,6.73
2018-05-06T22:02:03.974Z,6.53
2018-05-06T22:04:29.743Z,5.00
2018-05-06T22:06:55.508Z,7.60
2018-05-06T22:09:21.255Z,5.47
2018-05-06T22:11:47.032Z,10.20
2018-05-06T22:14:12.791Z,5.17
2018-05-06T22:16:38.548Z,5.00
2018-05-06T22:19:04.331Z,5.53
2018-05-06T22:21:30.095Z,3.87
2018-05-06T22:23:55.851Z,5.03
2018-05-06T22:26:21.606Z,7.30
2018-05-06T22:28:47.375Z,7.03
2018-05-06T22:31:13.163Z,9.90
2018-05-06T22:33:38.965Z,4.67
2018-05-06T22:36:04.725Z,6.97
2018-05-06T22:38:30.503Z,4.90
2018-05-06T22:40:56.265Z,4.17
2018-05-06T22:43:22.048Z,4.03
2018-05-06T22:45:47.798Z,4.87
2018-05-06T22:48:13.567Z,6.37
2018-05-06T22:50:39.325Z,4.13
2018-05-06T22:53:05.118Z,5.40
2018-05-06T22:55:30.907Z,4.10
2018-05-06T22:57:56.681Z,3.07
2018-05-06T23:00:22.497Z,4.83
2018-05-06T23:02:48.340Z,4.50
2018-05-06T23:05:14.104Z,5.00
2018-05-06T23:07:39.870Z,4.17
2018-05-06T23:10:05.634Z,5.23
2018-05-06T23:12:31.625Z,4.10
2018-05-06T23:14:57.397Z,6.00
2018-05-06T23:17:23.157Z,4.27
2018-05-06T23:19:48.927Z,8.13
2018-05-06T23:22:14.699Z,3.57
2018-05-06T23:24:40.456Z,5.10
2018-05-06T23:27:06.227Z,2.90
2018-05-06T23:29:32.327Z,4.90
2018-05-06T23:31:58.103Z,5.07
2018-05-06T23:34:23.872Z,3.90
2018-05-06T23:36:49.655Z,3.13
2018-05-06T23:39:15.439Z,3.13
2018-05-06T23:41:41.192Z,5.40
2018-05-06T23:44:06.959Z,3.03
2018-05-06T23:46:32.729Z,3.10
2018-05-06T23:48:58.511Z,3.10
2018-05-06T23:51:24.281Z,3.30
2018-05-06T23:53:50.056Z,3.93
2018-05-06T23:56:15.829Z,5.60
2018-05-06T23:58:41.609Z,4.33
